Time;durP1;ratioP1;P1;durP2;ratioP2;P2;SDS_P1;SDS_P2;PMS_P1;PMS_P2;Temp;Humidity;BMP_temperature;BMP_pressure;BME280_temperature;BME280_humidity;BME280_pressure;Samples;Min_cycle;Max_cycle;Signal;HPM_P1;HPM_P2
2023/01/14 00:01:14;;;;;;;3.17;0.88;;;;;;;6.22;73.47;97040.28;6187401;23;20020;-78
2023/01/14 00:03:43;;;;;;;3.80;0.77;;;;;;;6.18;72.52;97047.53;6186993;23;20024;-78
2023/01/14 00:06:16;;;;;;;4.68;1.00;;;;;;;6.15;74.04;97042.63;6187414;23;20025;-78
2023/01/14 00:08:45;;;;;;;;;;;;;;;6.17;74.13;97052.88;6189328;23;20017;-78
2023/01/14 00:11:17;;;;;;;1.85;0.65;;;;;;;6.15;73.05;97047.00;6187797;23;20345;-78
2023/01/14 00:13:47;;;;;;;6.00;1.17;;;;;;;6.13;72.26;97054.91;6188287;23;20017;-78
2023/01/14 00:16:16;;;;;;;4.18;1.05;;;;;;;6.11;72.43;97046.47;6188576;23;20013;-78
2023/01/14 00:18:46;;;;;;;4.40;1.02;;;;;;;6.12;73.70;97055.03;6188890;23;20361;-78
2023/01/14 00:21:18;;;;;;;4.72;1.33;;;;;;;6.15;74.56;97058.19;6188541;23;20373;-78
2023/01/14 00:23:48;;;;;;;4.07;1.00;;;;;;;6.16;73.23;97054.63;6188341;23;20017;-78
2023/01/14 00:26:18;;;;;;;5.35;1.58;;;;;;;6.19;74.40;97058.72;6188259;23;20024;-78
2023/01/14 00:28:49;;;;;;;6.03;1.17;;;;;;;6.18;73.19;97042.34;6187254;23;20388;-78
2023/01/14 00:31:22;;;;;;;3.97;1.00;;;;;;;6.21;72.82;97045.59;6188366;23;20027;-78
2023/01/14 00:33:53;;;;;;;7.65;1.98;;;;;;;6.21;71.86;97037.81;6187011;23;20017;-79
2023/01/14 00:36:25;;;;;;;4.10;1.20;;;;;;;6.22;71.79;97042.88;6187280;23;20075;-78
2023/01/14 00:38:56;;;;;;;2.50;0.90;;;;;;;6.26;73.97;97033.06;6186574;23;20761;-78
2023/01/14 00:41:26;;;;;;;8.93;1.33;;;;;;;6.28;72.86;97020.78;6187045;23;20021;-78
2023/01/14 00:43:57;;;;;;;4.05;1.45;;;;;;;6.28;72.92;97020.78;6201975;23;20005;-79
2023/01/14 00:46:29;;;;;;;4.53;1.30;;;;;;;6.29;73.05;97024.97;6212708;23;20017;-78
2023/01/14 00:49:01;;;;;;;2.47;1.02;;;;;;;6.30;72.65;97034.41;6195667;23;20044;-78
2023/01/14 00:51:34;;;;;;;4.43;1.33;;;;;;;6.29;72.88;97030.16;6210764;23;20012;-80
2023/01/14 00:54:04;;;;;;;5.72;1.20;;;;;;;6.33;74.57;97028.91;6213193;23;20048;-79
2023/01/14 00:56:33;;;;;;;4.18;1.73;;;;;;;6.33;73.78;97034.91;6199702;23;20021;-79
2023/01/14 00:59:03;;;;;;;5.05;1.30;;;;;;;6.33;72.50;97034.09;6207647;23;20029;-79
2023/01/14 01:01:32;;;;;;;3.60;1.42;;;;;;;6.31;72.83;97036.03;6209507;23;20073;-79
2023/01/14 01:04:04;;;;;;;4.88;1.25;;;;;;;6.33;71.99;97044.47;6194102;23;20509;-78
2023/01/14 01:06:35;;;;;;;4.32;1.08;;;;;;;6.33;71.60;97044.47;6188816;23;20021;-78
2023/01/14 01:09:04;;;;;;;4.22;1.10;;;;;;;6.30;71.82;97037.81;6188039;23;20457;-78
2023/01/14 01:11:34;;;;;;;3.53;0.88;;;;;;;6.29;73.44;97036.16;6188157;23;20024;-79
2023/01/14 01:14:03;;;;;;;6.15;0.80;;;;;;;6.33;72.05;97039.28;6187523;23;20017;-78
2023/01/14 01:16:34;;;;;;;4.65;1.40;;;;;;;6.33;73.30;97044.47;6187881;23;20413;-79
2023/01/14 01:19:03;;;;;;;6.00;1.08;;;;;;;6.35;73.74;97043.34;6187780;23;20021;-78
2023/01/14 01:21:34;;;;;;;3.25;1.15;;;;;;;6.39;74.45;97044.69;6187215;23;20027;-78
2023/01/14 01:24:04;;;;;;;5.45;1.20;;;;;;;6.39;72.81;97038.72;6186749;23;20480;-78
2023/01/14 01:26:33;;;;;;;3.90;0.95;;;;;;;6.37;71.64;97040.63;6186923;23;20021;-78
2023/01/14 01:29:04;;;;;;;3.28;0.95;;;;;;;6.40;72.70;97045.50;6186725;23;20024;-78
2023/01/14 01:31:33;;;;;;;3.35;1.20;;;;;;;6.45;73.39;97051.09;6186710;23;20017;-78
2023/01/14 01:34:02;;;;;;;2.92;1.30;;;;;;;6.49;73.52;97060.19;6186438;23;20063;-78
2023/01/14 01:36:32;;;;;;;7.65;1.45;;;;;;;6.48;72.12;97060.34;6186896;23;20413;-78
2023/01/14 01:39:03;;;;;;;5.88;0.98;;;;;;;6.48;71.68;97057.75;6186174;23;20035;-79
2023/01/14 01:41:33;;;;;;;3.35;0.98;;;;;;;6.50;71.10;97067.03;6186148;23;20096;-78
2023/01/14 01:44:07;;;;;;;8.18;1.38;;;;;;;6.50;72.49;97061.03;6186071;23;20017;-78
2023/01/14 01:46:38;;;;;;;4.10;1.13;;;;;;;6.51;71.17;97060.84;6186344;23;20017;-78
2023/01/14 01:49:12;;;;;;;6.38;1.13;;;;;;;6.55;71.94;97061.41;6186455;23;20013;-78
2023/01/14 01:51:48;;;;;;;7.38;1.40;;;;;;;6.57;73.09;97057.69;6190673;23;20468;-78
2023/01/14 01:54:23;;;;;;;4.30;1.02;;;;;;;6.55;71.24;97054.44;6193161;23;20072;-79
2023/01/14 01:56:52;;;;;;;4.53;1.20;;;;;;;6.55;70.32;97057.03;6190194;23;20483;-78
2023/01/14 01:59:26;;;;;;;2.47;1.05;;;;;;;6.55;70.93;97058.81;6186597;23;20449;-78
2023/01/14 02:01:57;;;;;;;6.35;1.13;;;;;;;6.55;70.70;97064.78;6186191;23;20017;-78
2023/01/14 02:04:30;;;;;;;4.95;1.10;;;;;;;6.56;71.53;97069.03;6186236;23;20020;-78
2023/01/14 02:06:59;;;;;;;5.03;1.40;;;;;;;6.55;71.41;97067.38;6186092;23;20021;-78
2023/01/14 02:09:30;;;;;;;6.38;2.08;;;;;;;6.57;70.82;97068.06;6186086;23;20017;-79
2023/01/14 02:12:15;;;;;;;6.63;1.80;;;;;;;6.59;72.30;97075.69;6186566;23;20021;-78
2023/01/14 02:14:59;;;;;;;2.53;1.10;;;;;;;6.63;73.23;97076.25;6186740;23;20063;-78
2023/01/14 02:17:40;;;;;;;1.95;1.00;;;;;;;6.63;74.14;97082.22;6186256;23;20082;-78
2023/01/14 02:20:18;;;;;;;4.22;1.25;;;;;;;6.65;73.44;97071.69;6185923;23;20445;-78
2023/01/14 02:23:28;;;;;;;4.47;1.20;;;;;;;6.69;72.50;97075.63;6186032;23;20040;-78
2023/01/14 02:26:32;;;;;;;4.00;1.13;;;;;;;6.67;69.95;97077.56;6186145;23;20533;-79
2023/01/14 02:29:37;;;;;;;4.88;1.45;;;;;;;6.63;71.19;97071.06;6149153;23;20060;-78
2023/01/14 02:32:14;;;;;;;3.78;1.02;;;;;;;6.62;69.30;97078.00;6100694;23;20017;-79
2023/01/14 02:34:52;;;;;;;4.93;1.45;;;;;;;6.64;71.07;97075.25;6186011;23;20488;-78
2023/01/14 02:37:29;;;;;;;4.65;1.15;;;;;;;6.66;71.06;97070.75;6186170;23;20017;-78
2023/01/14 02:40:03;;;;;;;5.00;1.10;;;;;;;6.71;70.80;97078.91;6186403;23;20044;-78
2023/01/14 02:45:30;;;;;;;4.90;1.00;;;;;;;6.68;70.49;97079.19;6186004;23;20035;-78
2023/01/14 02:48:03;;;;;;;3.17;1.33;;;;;;;6.64;69.08;97072.66;6185504;23;20013;-78
2023/01/14 02:50:36;;;;;;;4.25;1.42;;;;;;;6.60;69.76;97069.53;6185907;23;20094;-78
2023/01/14 02:53:10;;;;;;;2.95;1.20;;;;;;;6.58;69.85;97067.13;6185950;23;20023;-78
2023/01/14 02:55:39;;;;;;;4.55;0.90;;;;;;;6.60;71.87;97062.59;6186090;23;20025;-78
2023/01/14 02:58:35;;;;;;;4.68;1.23;;;;;;;6.64;69.34;97064.91;6185455;23;20021;-78
2023/01/14 03:01:27;;;;;;;6.50;1.40;;;;;;;6.64;70.52;97057.13;6186396;23;20017;-78
2023/01/14 03:04:13;;;;;;;6.40;1.10;;;;;;;6.65;73.39;97056.97;6185815;23;20023;-78
2023/01/14 03:06:53;;;;;;;5.47;1.27;;;;;;;6.68;72.29;97048.09;6185930;23;20269;-78
2023/01/14 03:09:33;;;;;;;8.13;0.90;;;;;;;6.67;70.66;97056.81;6185822;23;20017;-78
2023/01/14 03:12:15;;;;;;;5.05;1.40;;;;;;;6.67;71.84;97057.66;6186049;23;20017;-78
2023/01/14 03:14:51;;;;;;;5.90;1.08;;;;;;;6.67;69.97;97056.81;6186077;23;20023;-78
2023/01/14 03:17:28;;;;;;;3.03;0.85;;;;;;;6.60;70.45;97062.59;6185946;23;20025;-78
2023/01/14 03:20:07;;;;;;;5.95;1.05;;;;;;;6.59;72.48;97060.97;6185616;23;20017;-78
2023/01/14 03:22:42;;;;;;;8.55;2.22;;;;;;;6.60;70.77;97069.53;6186433;23;20020;-78
2023/01/14 03:25:12;;;;;;;;;;;;;;;6.65;71.08;97063.91;6186833;23;20017;-78
2023/01/14 03:27:42;;;;;;;3.65;0.90;;;;;;;6.62;71.86;97056.44;6185368;23;19971;-78
2023/01/14 03:30:19;;;;;;;2.55;1.10;;;;;;;6.62;72.96;97051.25;6186006;23;20404;-78
2023/01/14 03:32:55;;;;;;;3.92;0.95;;;;;;;6.57;70.10;97060.28;6187082;23;20023;-78
2023/01/14 03:35:28;;;;;;;8.43;1.15;;;;;;;6.52;69.09;97059.09;6188163;23;20017;-78
2023/01/14 03:38:03;;;;;;;5.15;1.30;;;;;;;6.49;69.82;97054.19;6187722;23;20076;-78
2023/01/14 03:40:34;;;;;;;4.47;0.88;;;;;;;6.48;69.66;97055.97;6187672;23;20027;-78
2023/01/14 03:43:11;;;;;;;4.43;1.13;;;;;;;6.48;72.49;97061.16;6212873;23;20068;-79
2023/01/14 03:45:43;;;;;;;3.95;0.95;;;;;;;6.48;70.65;97053.38;6209696;23;20017;-80
2023/01/14 03:48:13;;;;;;;2.95;0.77;;;;;;;6.47;69.76;97049.19;6189479;23;20037;-78
2023/01/14 03:50:51;;;;;;;3.17;0.77;;;;;;;6.47;71.48;97038.81;6187875;23;20020;-78
2023/01/14 03:53:25;;;;;;;4.43;1.02;;;;;;;6.44;71.96;97041.69;6187649;23;20035;-78
2023/01/14 03:56:14;;;;;;;2.17;0.80;;;;;;;6.43;73.52;97044.41;6187645;23;20017;-78
2023/01/14 03:58:47;;;;;;;6.53;1.30;;;;;;;6.39;72.28;97049.88;6187096;23;20013;-78
2023/01/14 04:01:21;;;;;;;3.75;1.10;;;;;;;6.40;72.27;97048.09;6187469;23;20104;-78
2023/01/14 04:03:51;;;;;;;3.78;1.02;;;;;;;6.42;72.59;97042.78;6187528;23;20025;-78
2023/01/14 04:06:23;;;;;;;7.40;1.30;;;;;;;6.42;70.37;97045.38;6187549;23;20024;-78
2023/01/14 04:08:55;;;;;;;6.18;0.73;;;;;;;6.47;72.73;97050.94;6188482;23;20512;-78
2023/01/14 04:11:24;;;;;;;6.32;1.55;;;;;;;6.45;70.47;97051.09;6187023;23;20092;-78
2023/01/14 04:16:40;;;;;;;3.83;0.88;;;;;;;6.30;68.45;97042.97;6187951;23;20014;-78
2023/01/14 04:19:09;;;;;;;4.20;1.45;;;;;;;6.21;68.13;97041.25;6186769;23;20017;-77
2023/01/14 04:21:40;;;;;;;3.83;1.17;;;;;;;6.11;67.65;97041.28;6186698;23;20095;-78
2023/01/14 04:24:09;;;;;;;4.15;1.08;;;;;;;6.02;68.04;97042.16;6191767;23;20017;-78
2023/01/14 04:26:39;;;;;;;4.20;2.08;;;;;;;5.97;67.92;97040.00;6208678;23;20017;-78
2023/01/14 04:29:09;;;;;;;4.30;1.15;;;;;;;5.92;68.17;97041.31;6210166;23;20024;-79
2023/01/14 04:31:38;;;;;;;3.97;1.35;;;;;;;5.88;68.48;97042.56;6194265;23;20021;-78
2023/01/14 04:34:09;;;;;;;8.52;1.20;;;;;;;5.78;67.72;97025.28;6191143;23;20013;-79
2023/01/14 04:36:43;;;;;;;2.80;0.80;;;;;;;5.69;68.11;97026.13;6189467;23;20017;-78
2023/01/14 04:39:12;;;;;;;;;;;;;;;5.63;67.76;97013.75;6192438;23;20027;-79
2023/01/14 04:44:29;;;;;;;4.07;1.00;;;;;;;5.38;68.40;97007.44;6208931;23;20028;-79
2023/01/14 04:46:59;;;;;;;6.10;1.40;;;;;;;5.29;68.22;97014.25;6190227;23;20013;-78
2023/01/14 04:49:28;;;;;;;6.75;0.95;;;;;;;5.25;69.19;97015.47;6188195;23;20017;-78
2023/01/14 04:52:02;;;;;;;3.80;1.02;;;;;;;5.23;68.97;97013.97;6187506;23;20068;-78
2023/01/14 04:54:31;;;;;;;8.73;1.58;;;;;;;5.19;69.06;97013.44;6187321;23;20021;-78
2023/01/14 04:57:03;;;;;;;3.33;0.73;;;;;;;5.18;69.15;97014.38;6187822;23;20021;-78
2023/01/14 04:59:33;;;;;;;5.28;1.17;;;;;;;5.20;69.26;97014.25;6186403;23;20028;-77
2023/01/14 05:02:02;;;;;;;3.22;1.13;;;;;;;5.10;68.50;97015.06;6186811;23;20045;-77
2023/01/14 05:04:35;;;;;;;8.40;1.10;;;;;;;4.98;68.79;97015.34;6187121;23;20021;-78
2023/01/14 05:07:06;;;;;;;12.10;4.15;;;;;;;4.87;68.76;97016.28;6186830;23;20021;-78
2023/01/14 05:09:35;;;;;;;15.60;4.28;;;;;;;4.82;69.17;97013.31;6186175;23;20028;-78
2023/01/14 05:12:06;;;;;;;6.13;2.35;;;;;;;4.78;69.00;97015.34;6186960;23;20023;-78
2023/01/14 05:14:35;;;;;;;9.13;2.28;;;;;;;4.77;70.72;97018.03;6187049;23;20025;-78
2023/01/14 05:17:05;;;;;;;5.10;2.00;;;;;;;4.84;71.24;97021.75;6186485;23;20013;-78
2023/01/14 05:19:37;;;;;;;5.82;2.03;;;;;;;4.87;70.69;97019.69;6186668;23;20028;-79
2023/01/14 05:22:08;;;;;;;11.07;3.17;;;;;;;4.90;71.61;97013.44;6186327;23;20021;-78
2023/01/14 05:24:39;;;;;;;6.72;2.20;;;;;;;4.91;70.43;97013.28;6186700;23;20021;-78
2023/01/14 05:27:08;;;;;;;9.02;1.75;;;;;;;4.89;69.54;97019.56;6186781;23;20024;-78
2023/01/14 05:29:38;;;;;;;11.00;3.83;;;;;;;4.87;69.94;97024.03;6186254;23;20100;-78
2023/01/14 05:32:11;;;;;;;13.10;3.85;;;;;;;4.85;69.40;97025.94;6190311;23;20024;-79
2023/01/14 05:34:42;;;;;;;17.08;4.80;;;;;;;4.80;69.26;97034.13;6193473;23;20071;-78
2023/01/14 05:37:14;;;;;;;11.38;3.70;;;;;;;4.83;70.38;97038.19;6193595;23;20017;-79
2023/01/14 05:39:47;;;;;;;11.32;3.92;;;;;;;4.83;69.43;97028.69;6186768;23;20017;-77
2023/01/14 05:47:59;;;;;;;5.47;2.30;;;;;;;4.81;71.85;97020.25;6186071;23;20040;-78
2023/01/14 05:50:28;;;;;;;3.47;1.40;;;;;;;4.81;70.50;97012.50;6186691;23;20059;-78
2023/01/14 05:53:02;;;;;;;5.82;2.05;;;;;;;4.81;70.36;97022.84;6186219;23;20021;-78
2023/01/14 05:55:40;;;;;;;6.90;1.85;;;;;;;4.84;69.19;97014.00;6186249;23;20048;-78
2023/01/14 05:58:10;;;;;;;4.50;1.08;;;;;;;4.82;69.11;97003.78;6186612;23;20100;-77
2023/01/14 06:06:23;;;;;;;4.97;1.13;;;;;;;4.61;69.46;97009.06;6186311;23;20024;-78
2023/01/14 06:08:58;;;;;;;5.88;1.00;;;;;;;4.58;69.15;97009.34;6185879;23;20020;-78
2023/01/14 06:11:32;;;;;;;3.67;1.08;;;;;;;4.58;69.67;97005.94;6186352;23;20041;-78
2023/01/14 06:14:06;;;;;;;5.80;1.35;;;;;;;4.57;69.53;97012.03;6186038;23;20023;-78
2023/01/14 06:16:39;;;;;;;4.53;1.25;;;;;;;4.61;69.50;97013.41;6186136;23;20465;-77
2023/01/14 06:19:09;;;;;;;2.97;0.82;;;;;;;4.66;69.48;97011.25;6185560;23;20017;-78
2023/01/14 06:21:39;;;;;;;5.57;1.10;;;;;;;4.70;69.50;97007.44;6183222;23;20481;-78
2023/01/14 06:24:13;;;;;;;7.90;1.05;;;;;;;4.74;69.33;97003.63;6185320;23;20543;-77
2023/01/14 06:26:42;;;;;;;3.15;0.88;;;;;;;4.78;69.43;96999.81;6185632;23;20100;-77
2023/01/14 06:29:13;;;;;;;6.10;1.13;;;;;;;4.81;69.46;96999.56;6185271;23;20020;-77
2023/01/14 06:31:47;;;;;;;4.78;1.27;;;;;;;4.85;69.29;96998.31;6185681;23;20017;-78
2023/01/14 06:34:15;;;;;;;4.10;1.43;;;;;;;4.86;69.24;96992.22;6185639;23;20021;-78
2023/01/14 06:36:44;;;;;;;3.72;1.08;;;;;;;4.90;69.07;96983.25;6185201;23;20020;-78
2023/01/14 06:39:15;;;;;;;5.75;1.20;;;;;;;4.97;69.35;96982.69;6163997;23;20017;-78
2023/01/14 06:41:44;;;;;;;6.90;1.00;;;;;;;5.02;70.07;96980.50;6206148;23;20072;-78
2023/01/14 06:44:18;;;;;;;4.07;1.33;;;;;;;5.05;69.81;96968.13;6186053;23;20024;-77
2023/01/14 06:46:51;;;;;;;5.22;1.20;;;;;;;5.11;70.05;96964.97;6185744;23;20013;-78
2023/01/14 06:49:25;;;;;;;3.90;1.02;;;;;;;5.15;69.65;96957.75;6160251;23;20021;-77
2023/01/14 06:52:00;;;;;;;4.22;1.60;;;;;;;5.20;70.61;96968.50;6186082;23;20450;-77
2023/01/14 06:54:37;;;;;;;5.35;1.23;;;;;;;5.23;69.69;96970.00;6186319;23;20017;-77
2023/01/14 06:57:07;;;;;;;3.90;0.95;;;;;;;5.25;71.46;96968.09;6185678;23;20013;-78
2023/01/14 07:02:21;;;;;;;4.00;0.90;;;;;;;5.33;71.48;96963.84;6186768;23;20048;-78
2023/01/14 07:08:39;;;;;;;5.90;1.40;;;;;;;5.36;70.57;96958.41;6097749;23;20026;-78
2023/01/14 07:11:15;;;;;;;4.68;1.15;;;;;;;5.33;70.57;96943.16;6097618;23;20057;-77
2023/01/14 07:16:40;;;;;;;6.57;2.22;;;;;;;5.27;70.82;96933.38;6097199;23;20085;-77
2023/01/14 07:19:28;;;;;;;4.45;1.23;;;;;;;5.31;71.40;96934.75;6096531;23;20026;-78
2023/01/14 07:29:48;;;;;;;4.65;1.02;;;;;;;5.40;71.84;96932.25;6182470;23;20044;-78
2023/01/14 07:32:16;;;;;;;7.95;1.80;;;;;;;5.43;71.53;96929.38;6218142;23;20025;-78
2023/01/14 07:34:44;;;;;;;4.15;1.10;;;;;;;5.43;71.44;96931.97;6218210;23;20071;-77
2023/01/14 07:37:12;;;;;;;4.55;0.93;;;;;;;5.48;72.10;96922.81;6218369;23;20020;-77
2023/01/14 07:39:40;;;;;;;5.68;1.10;;;;;;;5.53;71.83;96922.38;6217984;23;20063;-78
2023/01/14 07:42:07;;;;;;;7.57;1.20;;;;;;;5.53;72.19;96922.38;6218711;23;20021;-78
2023/01/14 07:44:35;;;;;;;7.43;1.67;;;;;;;5.57;71.57;96923.75;6218148;23;20036;-78
2023/01/14 07:47:05;;;;;;;4.00;1.40;;;;;;;5.61;71.56;96929.44;6218199;23;20468;-78
2023/01/14 07:52:33;;;;;;;6.88;1.35;;;;;;;5.73;71.70;96923.16;6217332;23;20066;-77
2023/01/14 07:55:01;;;;;;;5.78;2.05;;;;;;;5.77;70.88;96911.53;6219034;23;20404;-78
2023/01/14 07:57:29;;;;;;;7.03;1.52;;;;;;;5.81;71.37;96904.28;6217565;23;20020;-79
2023/01/14 08:10:14;;;;;;;2.88;1.10;;;;;;;6.10;72.13;96884.28;6228456;23;20460;-78
2023/01/14 08:12:42;;;;;;;4.25;1.60;;;;;;;6.14;71.67;96884.78;6217152;23;20024;-78
2023/01/14 08:15:12;;;;;;;5.72;1.40;;;;;;;6.14;71.01;96888.19;6216921;23;20017;-78
2023/01/14 08:17:40;;;;;;;6.65;2.13;;;;;;;6.18;70.84;96886.91;6217191;23;20021;-79
2023/01/14 08:20:09;;;;;;;7.45;1.85;;;;;;;6.23;70.42;96886.50;6217164;23;20539;-79
2023/01/14 08:22:37;;;;;;;5.45;1.45;;;;;;;6.27;72.56;96879.22;6219454;23;20025;-79
2023/01/14 08:25:06;;;;;;;5.05;1.40;;;;;;;6.32;71.93;96882.19;6243763;23;20024;-79
2023/01/14 08:35:34;;;;;;;2.55;0.90;;;;;;;6.33;70.70;96863.09;6206229;23;20023;-79
2023/01/14 08:38:04;;;;;;;5.53;1.50;;;;;;;6.30;70.75;96853.03;6217936;23;20103;-79
2023/01/14 08:40:55;;;;;;;10.30;1.30;;;;;;;6.34;73.61;96841.41;6216865;23;20333;-78
2023/01/14 08:43:26;;;;;;;8.07;1.95;;;;;;;6.37;71.88;96838.53;6217407;23;20100;-79
2023/01/14 08:45:54;;;;;;;5.70;1.67;;;;;;;6.38;72.43;96837.56;6219164;23;20449;-78
2023/01/14 08:48:22;;;;;;;6.22;1.80;;;;;;;6.39;71.49;96837.41;6216254;23;20052;-78
2023/01/14 08:50:50;;;;;;;5.22;2.10;;;;;;;6.39;70.88;96836.59;6216371;23;20048;-78
2023/01/14 08:53:18;;;;;;;6.72;1.52;;;;;;;6.41;72.45;96837.25;6224153;23;20103;-77
2023/01/14 08:55:46;;;;;;;5.00;1.48;;;;;;;6.44;73.81;96839.53;6219014;23;20020;-77
2023/01/14 08:58:13;;;;;;;471.45;37.55;;;;;;;6.49;73.09;96826.94;6215695;23;20027;-78
2023/01/14 09:00:41;;;;;;;9.98;1.90;;;;;;;6.51;72.66;96819.84;6215881;23;20464;-78
2023/01/14 09:03:08;;;;;;;5.45;2.03;;;;;;;6.50;71.55;96828.59;6215933;23;20027;-77
2023/01/14 09:05:36;;;;;;;9.65;2.25;;;;;;;6.50;71.32;96818.22;6215767;23;20030;-77
2023/01/14 09:19:10;;;;;;;7.82;1.45;;;;;;;6.49;70.81;96806.22;6214952;23;20074;-77
2023/01/14 09:21:37;;;;;;;9.27;1.83;;;;;;;6.54;71.52;96804.00;6215991;23;20031;-77
2023/01/14 09:24:06;;;;;;;4.47;1.65;;;;;;;6.57;71.28;96811.47;6215765;23;20020;-76
2023/01/14 09:26:34;;;;;;;4.38;1.73;;;;;;;6.57;70.71;96803.69;6215765;23;20070;-77
2023/01/14 09:29:01;;;;;;;8.75;2.45;;;;;;;6.56;72.04;96803.84;6214658;23;20021;-77
2023/01/14 09:31:29;;;;;;;8.73;2.00;;;;;;;6.59;71.12;96806.13;6215698;23;20107;-76
2023/01/14 09:33:57;;;;;;;4.55;1.42;;;;;;;6.64;70.67;96803.09;6216116;23;20027;-77
2023/01/14 09:36:24;;;;;;;4.93;1.77;;;;;;;6.68;70.47;96804.41;6215654;23;20030;-77
2023/01/14 09:38:52;;;;;;;5.43;1.98;;;;;;;6.71;70.60;96806.69;6214522;23;20048;-77
2023/01/14 09:41:27;;;;;;;7.85;2.25;;;;;;;6.73;71.48;96794.38;6212333;23;20020;-75
2023/01/14 09:43:55;;;;;;;11.50;1.90;;;;;;;6.75;70.20;96800.22;6213833;23;20024;-75
2023/01/14 09:46:25;;;;;;;6.00;1.73;;;;;;;6.75;69.72;96790.66;6214664;23;20027;-75
2023/01/14 09:48:55;;;;;;;6.82;1.90;;;;;;;6.76;69.89;96799.28;6213452;23;20515;-75
2023/01/14 09:51:42;;;;;;;8.85;1.75;;;;;;;6.79;70.82;96783.41;6214965;23;20095;-75
2023/01/14 09:54:16;;;;;;;6.95;1.38;;;;;;;6.78;69.56;96780.00;6214933;23;20024;-75
2023/01/14 09:56:50;;;;;;;4.72;1.85;;;;;;;6.80;70.58;96775.50;6214737;23;20103;-75
2023/01/14 09:59:25;;;;;;;6.55;1.88;;;;;;;6.87;70.09;96780.06;6211326;23;20322;-74
2023/01/14 10:02:00;;;;;;;4.18;1.15;;;;;;;6.91;69.68;96768.41;6212537;23;20020;-74
2023/01/14 10:05:04;;;;;;;7.18;1.27;;;;;;;6.97;69.26;96767.78;6212734;23;20325;-75
2023/01/14 10:07:34;;;;;;;4.80;1.50;;;;;;;6.97;69.40;96758.22;6188172;23;20020;-75
2023/01/14 10:10:03;;;;;;;5.45;1.33;;;;;;;6.98;69.42;96753.88;6211208;23;20523;-75
2023/01/14 10:12:36;;;;;;;3.45;1.52;;;;;;;7.00;69.41;96750.13;6213235;23;20253;-75
2023/01/14 10:15:15;;;;;;;8.80;1.60;;;;;;;7.06;69.84;96745.28;6214920;23;20360;-75
2023/01/14 10:17:47;;;;;;;3.92;0.80;;;;;;;7.06;69.02;96740.09;6214820;23;20027;-75
2023/01/14 10:20:19;;;;;;;5.75;1.05;;;;;;;7.08;70.71;96723.41;6210791;23;20030;-75
2023/01/14 10:22:53;;;;;;;1.70;1.03;;;;;;;7.13;69.49;96721.19;6213756;23;20055;-75
2023/01/14 10:25:22;;;;;;;1.90;0.80;;;;;;;7.17;69.21;96716.47;6214058;23;20486;-75
2023/01/14 10:27:53;;;;;;;4.72;1.40;;;;;;;7.20;69.99;96711.78;6213516;23;20035;-75
2023/01/14 10:30:23;;;;;;;3.25;0.65;;;;;;;7.25;69.09;96706.13;6212813;23;20020;-76
2023/01/14 10:32:53;;;;;;;1.88;0.65;;;;;;;7.27;68.62;96701.59;6212088;23;20024;-75
2023/01/14 10:35:29;;;;;;;2.60;0.77;;;;;;;7.29;70.13;96706.63;6212385;23;20111;-75
2023/01/14 10:37:57;;;;;;;3.35;0.70;;;;;;;7.33;69.59;96706.16;6211642;23;20082;-75
2023/01/14 10:40:27;;;;;;;3.75;1.13;;;;;;;7.38;69.40;96696.09;6211717;23;20020;-75
2023/01/14 10:42:59;;;;;;;4.45;1.48;;;;;;;7.45;69.04;96683.28;6212335;23;20017;-75
2023/01/14 10:45:26;;;;;;;6.45;1.45;;;;;;;7.50;69.09;96675.03;6213545;23;20024;-75
2023/01/14 10:47:56;;;;;;;5.78;1.20;;;;;;;7.52;68.78;96673.91;6213146;23;20471;-75
2023/01/14 10:50:25;;;;;;;4.18;0.73;;;;;;;7.52;68.14;96667.88;6214771;23;20020;-76
2023/01/14 10:52:53;;;;;;;2.35;0.90;;;;;;;7.52;68.08;96678.28;6214784;23;20021;-75
2023/01/14 10:55:25;;;;;;;3.25;1.05;;;;;;;7.54;69.14;96666.78;6214156;23;20128;-75
2023/01/14 10:57:59;;;;;;;22.02;7.00;;;;;;;7.62;69.85;96658.16;6213814;23;20095;-75
2023/01/14 11:00:32;;;;;;;22.33;8.73;;;;;;;7.74;68.69;96650.84;6213942;23;20016;-75
2023/01/14 11:03:01;;;;;;;11.55;6.05;;;;;;;7.88;68.22;96644.22;6214731;23;20099;-76
2023/01/14 11:05:32;;;;;;;1.88;1.25;;;;;;;7.95;67.52;96637.38;6214321;23;20480;-75
2023/01/14 11:08:03;;;;;;;6.72;2.97;;;;;;;8.03;67.43;96637.38;6213440;23;20023;-75
2023/01/14 11:10:32;;;;;;;15.88;7.78;;;;;;;8.14;67.28;96626.66;6214355;23;20033;-75
2023/01/14 11:13:17;;;;;;;10.75;5.68;;;;;;;8.34;67.03;96641.88;6214243;23;20465;-75
2023/01/14 11:15:45;;;;;;;3.85;1.80;;;;;;;8.45;66.18;96637.16;6222459;23;20461;-75
2023/01/14 11:18:23;;;;;;;3.58;1.80;;;;;;;8.57;65.90;96626.38;6231459;23;20044;-75
2023/01/14 11:20:55;;;;;;;1.85;0.80;;;;;;;8.62;64.93;96609.31;6217684;23;20095;-76
2023/01/14 11:23:28;;;;;;;2.15;0.80;;;;;;;8.69;67.21;96593.03;6214947;23;20027;-77
2023/01/14 11:25:57;;;;;;;4.13;1.20;;;;;;;8.80;66.84;96570.03;6214782;23;20044;-77
2023/01/14 11:28:26;;;;;;;3.70;2.25;;;;;;;8.93;65.49;96572.09;6213460;23;20021;-76
2023/01/14 11:30:55;;;;;;;3.53;1.20;;;;;;;9.03;66.18;96574.47;6209843;23;20031;-77
2023/01/14 11:33:24;;;;;;;6.28;2.20;;;;;;;9.12;65.66;96575.22;6213982;23;20028;-76
2023/01/14 11:36:19;;;;;;;3.40;1.02;;;;;;;9.21;65.32;96571.59;6213825;23;20024;-75
2023/01/14 11:38:47;;;;;;;4.78;1.85;;;;;;;9.26;64.29;96564.06;6213059;23;20020;-77
2023/01/14 11:41:34;;;;;;;5.55;3.05;;;;;;;9.27;63.30;96561.28;6213764;23;20024;-77
2023/01/14 11:44:06;;;;;;;6.90;3.90;;;;;;;9.34;64.21;96545.00;6214267;23;20096;-77
2023/01/14 11:46:34;;;;;;;7.65;2.40;;;;;;;9.38;64.60;96547.06;6213709;23;20465;-77
2023/01/14 11:49:16;;;;;;;4.85;1.63;;;;;;;9.43;65.83;96539.53;6212234;23;20017;-76
2023/01/14 11:51:56;;;;;;;9.77;1.83;;;;;;;9.47;65.61;96538.19;6213961;23;20021;-77
2023/01/14 11:54:24;;;;;;;6.10;1.30;;;;;;;9.48;64.54;96529.38;6215866;23;20026;-76
2023/01/14 11:56:52;;;;;;;4.72;1.30;;;;;;;9.48;65.23;96526.78;6215416;23;20548;-78
2023/01/14 11:59:27;;;;;;;4.90;1.25;;;;;;;9.53;64.84;96518.44;6214803;23;20016;-77
2023/01/14 12:02:00;;;;;;;4.85;1.73;;;;;;;9.56;65.08;96522.50;6216361;23;20027;-76
2023/01/14 12:04:34;;;;;;;6.45;1.40;;;;;;;9.52;63.84;96514.22;6216972;23;20139;-77
2023/01/14 12:07:05;;;;;;;3.28;1.58;;;;;;;9.49;63.93;96512.78;6216720;23;20024;-75
2023/01/14 12:09:43;;;;;;;4.95;1.20;;;;;;;9.52;64.18;96510.81;6215563;23;20055;-77
2023/01/14 12:12:16;;;;;;;7.10;2.58;;;;;;;9.53;63.53;96508.00;6216333;23;20100;-77
2023/01/14 12:17:39;;;;;;;7.70;2.58;;;;;;;9.54;65.24;96498.44;6216362;23;20104;-77
2023/01/14 12:20:12;;;;;;;4.85;1.65;;;;;;;9.53;64.53;96489.78;6215399;23;20016;-77
2023/01/14 12:22:46;;;;;;;3.67;1.80;;;;;;;9.52;64.44;96475.16;6216362;23;20025;-78
2023/01/14 12:25:19;;;;;;;3.63;0.95;;;;;;;9.48;63.49;96472.09;6216332;23;20334;-78
2023/01/14 12:27:54;;;;;;;3.78;1.10;;;;;;;9.49;65.21;96465.91;6215487;23;20048;-77
2023/01/14 12:30:36;;;;;;;1.95;0.88;;;;;;;9.52;63.60;96458.75;6216341;23;20056;-77
2023/01/14 12:33:07;;;;;;;6.43;1.90;;;;;;;9.51;64.18;96457.94;6216570;23;20017;-77
2023/01/14 12:35:40;;;;;;;3.53;1.17;;;;;;;9.42;62.37;96458.97;6215708;23;20031;-76
2023/01/14 12:46:38;;;;;;;1.55;0.80;;;;;;;9.29;62.17;96423.16;6216632;23;20020;-78
2023/01/14 12:49:06;;;;;;;2.40;1.38;;;;;;;9.27;61.92;96417.31;6215209;23;20021;-77
2023/01/14 12:51:36;;;;;;;4.75;1.45;;;;;;;9.28;61.65;96400.72;6215456;23;20035;-77
2023/01/14 12:54:07;;;;;;;2.42;1.05;;;;;;;9.25;61.29;96398.47;6216368;23;20020;-77
2023/01/14 12:56:40;;;;;;;1.98;0.98;;;;;;;9.21;61.07;96390.22;6215877;23;20059;-77
2023/01/14 12:59:09;;;;;;;;;;;;;;;9.23;61.39;96397.84;6215477;23;20411;-77
2023/01/14 13:01:43;;;;;;;2.78;0.70;;;;;;;9.19;60.89;96391.38;6216098;23;19916;-79
2023/01/14 13:04:18;;;;;;;5.15;1.23;;;;;;;9.12;61.37;96387.84;6216089;23;20027;-77
2023/01/14 13:06:47;;;;;;;1.70;1.25;;;;;;;9.13;63.57;96382.47;6215757;23;20020;-76
2023/01/14 13:09:23;;;;;;;1.38;1.00;;;;;;;9.20;63.90;96390.38;6214636;23;20024;-77
2023/01/14 13:12:00;;;;;;;2.13;1.05;;;;;;;9.19;61.98;96370.56;6215410;23;20028;-77
2023/01/14 13:14:35;;;;;;;3.75;1.52;;;;;;;9.19;61.65;96362.75;6215739;23;20024;-77
2023/01/14 13:17:07;;;;;;;3.10;1.27;;;;;;;9.20;60.84;96356.56;6216415;23;20017;-77
2023/01/14 13:19:52;;;;;;;5.65;1.15;;;;;;;9.18;60.41;96348.94;6215437;23;20096;-77
2023/01/14 13:22:40;;;;;;;2.65;1.00;;;;;;;9.16;63.35;96344.88;6215278;23;20031;-75
2023/01/14 13:25:19;;;;;;;4.07;1.67;;;;;;;9.16;60.55;96339.69;6215265;23;20016;-76
2023/01/14 13:27:47;;;;;;;3.00;1.02;;;;;;;9.15;61.04;96338.06;6214221;23;20021;-77